sensor_id;sensor_type;location;lat;lon;timestamp;pressure;altitude;pressure_sealevel;temperature;humidity
43553;BME280;29153;42.696;23.218;2022-08-05T00:01:20;94601.64;;;15.68;86.64
43553;BME280;29153;42.696;23.218;2022-08-05T00:03:47;94601.94;;;15.67;86.77
43553;BME280;29153;42.696;23.218;2022-08-05T00:06:15;94600.49;;;15.61;86.71
43553;BME280;29153;42.696;23.218;2022-08-05T00:08:44;94604.36;;;15.55;86.99
43553;BME280;29153;42.696;23.218;2022-08-05T00:11:13;94602.66;;;15.59;87.03
43553;BME280;29153;42.696;23.218;2022-08-05T00:13:42;94599.45;;;15.59;87.03
43553;BME280;29153;42.696;23.218;2022-08-05T00:16:12;94594.04;;;15.51;87.35
43553;BME280;29153;42.696;23.218;2022-08-05T00:18:43;94598.08;;;15.48;87.54
43553;BME280;29153;42.696;23.218;2022-08-05T00:21:12;94597.76;;;15.38;87.85
43553;BME280;29153;42.696;23.218;2022-08-05T00:23:42;94597.76;;;15.38;87.92
43553;BME280;29153;42.696;23.218;2022-08-05T00:26:11;94593.25;;;15.36;88.14
43553;BME280;29153;42.696;23.218;2022-08-05T00:28:38;94598.47;;;15.30;88.25
43553;BME280;29153;42.696;23.218;2022-08-05T00:31:07;94587.55;;;15.29;88.25
43553;BME280;29153;42.696;23.218;2022-08-05T00:33:34;94594.29;;;15.27;88.27
43553;BME280;29153;42.696;23.218;2022-08-05T00:36:02;94592.20;;;15.24;88.42
43553;BME280;29153;42.696;23.218;2022-08-05T00:38:30;94590.78;;;15.15;88.69
43553;BME280;29153;42.696;23.218;2022-08-05T00:40:59;94586.91;;;15.10;88.98
43553;BME280;29153;42.696;23.218;2022-08-05T00:43:26;94589.27;;;15.12;89.13
43553;BME280;29153;42.696;23.218;2022-08-05T00:45:55;94583.09;;;15.14;89.00
43553;BME280;29153;42.696;23.218;2022-08-05T00:48:23;94584.00;;;15.09;89.05
43553;BME280;29153;42.696;23.218;2022-08-05T00:50:52;94588.39;;;15.02;89.24
43553;BME280;29153;42.696;23.218;2022-08-05T00:53:22;94581.78;;;15.00;89.57
43553;BME280;29153;42.696;23.218;2022-08-05T00:55:50;94578.58;;;15.00;89.46
43553;BME280;29153;42.696;23.218;2022-08-05T00:58:18;94579.91;;;15.00;89.44
43553;BME280;29153;42.696;23.218;2022-08-05T01:00:46;94588.02;;;14.95;89.74
43553;BME280;29153;42.696;23.218;2022-08-05T01:03:14;94578.14;;;14.96;89.90
43553;BME280;29153;42.696;23.218;2022-08-05T01:05:41;94578.33;;;14.99;89.67
43553;BME280;29153;42.696;23.218;2022-08-05T01:08:09;94578.07;;;14.98;89.60
43553;BME280;29153;42.696;23.218;2022-08-05T01:10:51;94578.34;;;14.86;90.04
43553;BME280;29153;42.696;23.218;2022-08-05T01:13:29;94580.38;;;14.78;90.45
43553;BME280;29153;42.696;23.218;2022-08-05T01:15:55;94580.02;;;14.82;90.46
43553;BME280;29153;42.696;23.218;2022-08-05T01:18:27;94578.59;;;14.87;90.33
43553;BME280;29153;42.696;23.218;2022-08-05T01:21:19;94576.66;;;14.90;90.20
43553;BME280;29153;42.696;23.218;2022-08-05T01:23:53;94575.51;;;14.93;90.36
43553;BME280;29153;42.696;23.218;2022-08-05T01:26:38;94581.86;;;14.84;90.46
43553;BME280;29153;42.696;23.218;2022-08-05T01:29:10;94583.48;;;14.69;90.80
43553;BME280;29153;42.696;23.218;2022-08-05T01:31:39;94584.47;;;14.73;90.80
43553;BME280;29153;42.696;23.218;2022-08-05T01:36:45;94585.58;;;14.72;90.77
43553;BME280;29153;42.696;23.218;2022-08-05T01:39:14;94581.77;;;14.62;90.95
43553;BME280;29153;42.696;23.218;2022-08-05T01:41:45;94585.27;;;14.59;91.32
43553;BME280;29153;42.696;23.218;2022-08-05T01:44:14;94590.12;;;14.57;91.28
43553;BME280;29153;42.696;23.218;2022-08-05T01:46:44;94587.26;;;14.54;91.26
43553;BME280;29153;42.696;23.218;2022-08-05T01:49:17;94583.30;;;14.51;91.42
43553;BME280;29153;42.696;23.218;2022-08-05T01:51:46;94588.87;;;14.52;91.44
43553;BME280;29153;42.696;23.218;2022-08-05T01:54:16;94585.70;;;14.50;91.55
43553;BME280;29153;42.696;23.218;2022-08-05T01:56:49;94589.48;;;14.49;91.66
43553;BME280;29153;42.696;23.218;2022-08-05T01:59:16;94591.05;;;14.34;91.84
43553;BME280;29153;42.696;23.218;2022-08-05T02:01:47;94588.66;;;14.35;92.07
43553;BME280;29153;42.696;23.218;2022-08-05T02:04:17;94594.51;;;14.37;91.98
43553;BME280;29153;42.696;23.218;2022-08-05T02:06:46;94593.80;;;14.29;91.98
43553;BME280;29153;42.696;23.218;2022-08-05T02:09:13;94597.80;;;14.29;92.06
43553;BME280;29153;42.696;23.218;2022-08-05T02:14:17;94594.45;;;14.24;92.24
43553;BME280;29153;42.696;23.218;2022-08-05T02:16:53;94589.41;;;14.22;92.14
43553;BME280;29153;42.696;23.218;2022-08-05T02:19:35;94595.33;;;14.19;92.27
43553;BME280;29153;42.696;23.218;2022-08-05T02:22:18;94593.75;;;14.18;92.43
43553;BME280;29153;42.696;23.218;2022-08-05T02:24:50;94591.59;;;14.04;92.71
43553;BME280;29153;42.696;23.218;2022-08-05T02:27:15;94592.72;;;14.00;93.02
43553;BME280;29153;42.696;23.218;2022-08-05T02:29:46;94586.20;;;13.93;93.23
43553;BME280;29153;42.696;23.218;2022-08-05T02:32:16;94590.02;;;13.87;93.56
43553;BME280;29153;42.696;23.218;2022-08-05T02:34:45;94594.40;;;13.80;94.04
43553;BME280;29153;42.696;23.218;2022-08-05T02:37:14;94594.66;;;13.81;94.04
43553;BME280;29153;42.696;23.218;2022-08-05T02:39:43;94589.15;;;13.75;94.18
43553;BME280;29153;42.696;23.218;2022-08-05T02:42:13;94589.20;;;13.73;94.54
43553;BME280;29153;42.696;23.218;2022-08-05T02:44:42;94593.06;;;13.64;94.79
43553;BME280;29153;42.696;23.218;2022-08-05T02:47:11;94595.75;;;13.61;95.18
43553;BME280;29153;42.696;23.218;2022-08-05T02:49:41;94590.55;;;13.54;95.25
43553;BME280;29153;42.696;23.218;2022-08-05T02:52:15;94592.27;;;13.47;95.38
43553;BME280;29153;42.696;23.218;2022-08-05T02:54:44;94586.42;;;13.45;95.89
43553;BME280;29153;42.696;23.218;2022-08-05T02:57:14;94589.55;;;13.50;96.05
43553;BME280;29153;42.696;23.218;2022-08-05T02:59:45;94595.06;;;13.56;96.02
43553;BME280;29153;42.696;23.218;2022-08-05T03:02:14;94589.17;;;13.56;95.89
43553;BME280;29153;42.696;23.218;2022-08-05T03:04:44;94581.31;;;13.49;95.98
43553;BME280;29153;42.696;23.218;2022-08-05T03:07:12;94589.30;;;13.49;96.10
43553;BME280;29153;42.696;23.218;2022-08-05T03:09:47;94586.63;;;13.49;96.47
43553;BME280;29153;42.696;23.218;2022-08-05T03:12:31;94586.28;;;13.55;96.35
43553;BME280;29153;42.696;23.218;2022-08-05T03:15:02;94587.41;;;13.68;96.07
43553;BME280;29153;42.696;23.218;2022-08-05T03:17:30;94585.44;;;13.74;95.83
43553;BME280;29153;42.696;23.218;2022-08-05T03:19:58;94591.20;;;13.81;95.66
43553;BME280;29153;42.696;23.218;2022-08-05T03:22:25;94586.20;;;13.77;95.56
43553;BME280;29153;42.696;23.218;2022-08-05T03:24:53;94586.20;;;13.77;95.40
43553;BME280;29153;42.696;23.218;2022-08-05T03:27:22;94587.95;;;13.84;95.31
43553;BME280;29153;42.696;23.218;2022-08-05T03:29:50;94592.34;;;13.91;95.02
43553;BME280;29153;42.696;23.218;2022-08-05T03:32:18;94587.53;;;13.93;94.74
43553;BME280;29153;42.696;23.218;2022-08-05T03:34:46;94587.86;;;13.89;94.50
43553;BME280;29153;42.696;23.218;2022-08-05T03:37:14;94587.35;;;13.87;94.73
43553;BME280;29153;42.696;23.218;2022-08-05T03:39:53;94585.94;;;13.92;94.61
43553;BME280;29153;42.696;23.218;2022-08-05T03:42:21;94590.91;;;13.98;94.68
43553;BME280;29153;42.696;23.218;2022-08-05T03:44:49;94590.05;;;14.00;94.54
43553;BME280;29153;42.696;23.218;2022-08-05T03:47:17;94587.70;;;13.99;94.66
43553;BME280;29153;42.696;23.218;2022-08-05T03:49:44;94592.84;;;14.09;94.45
43553;BME280;29153;42.696;23.218;2022-08-05T03:52:17;94589.49;;;14.17;94.44
43553;BME280;29153;42.696;23.218;2022-08-05T03:54:51;94591.81;;;14.21;94.32
43553;BME280;29153;42.696;23.218;2022-08-05T03:57:21;94593.91;;;14.24;94.02
43553;BME280;29153;42.696;23.218;2022-08-05T03:59:56;94589.92;;;14.24;93.82
43553;BME280;29153;42.696;23.218;2022-08-05T04:02:27;94594.31;;;14.31;93.65
43553;BME280;29153;42.696;23.218;2022-08-05T04:04:58;94596.66;;;14.35;93.41
43553;BME280;29153;42.696;23.218;2022-08-05T04:07:27;94585.85;;;14.43;93.28
43553;BME280;29153;42.696;23.218;2022-08-05T04:09:55;94588.14;;;14.49;93.08
43553;BME280;29153;42.696;23.218;2022-08-05T04:12:23;94592.27;;;14.55;92.85
43553;BME280;29153;42.696;23.218;2022-08-05T04:14:51;94594.38;;;14.58;92.78
43553;BME280;29153;42.696;23.218;2022-08-05T04:17:19;94590.41;;;14.70;92.68
43553;BME280;29153;42.696;23.218;2022-08-05T04:19:48;94596.91;;;14.77;92.56
43553;BME280;29153;42.696;23.218;2022-08-05T04:22:15;94596.19;;;14.74;92.30
43553;BME280;29153;42.696;23.218;2022-08-05T04:24:44;94593.11;;;14.81;91.92
43553;BME280;29153;42.696;23.218;2022-08-05T04:27:13;94589.98;;;14.90;92.07
43553;BME280;29153;42.696;23.218;2022-08-05T04:29:41;94588.70;;;15.01;92.32
43553;BME280;29153;42.696;23.218;2022-08-05T04:32:09;94587.68;;;15.11;92.60
43553;BME280;29153;42.696;23.218;2022-08-05T04:34:37;94585.09;;;15.19;92.75
43553;BME280;29153;42.696;23.218;2022-08-05T04:37:04;94586.72;;;15.31;92.45
43553;BME280;29153;42.696;23.218;2022-08-05T04:39:32;94585.93;;;15.42;92.19
43553;BME280;29153;42.696;23.218;2022-08-05T04:42:00;94586.53;;;15.53;92.04
43553;BME280;29153;42.696;23.218;2022-08-05T04:44:27;94586.77;;;15.65;91.94
43553;BME280;29153;42.696;23.218;2022-08-05T04:46:55;94589.51;;;15.73;91.80
43553;BME280;29153;42.696;23.218;2022-08-05T04:49:23;94587.87;;;15.86;91.84
43553;BME280;29153;42.696;23.218;2022-08-05T04:51:50;94583.00;;;15.99;91.71
43553;BME280;29153;42.696;23.218;2022-08-05T04:54:18;94585.11;;;16.11;91.57
43553;BME280;29153;42.696;23.218;2022-08-05T04:56:47;94580.77;;;16.23;91.05
43553;BME280;29153;42.696;23.218;2022-08-05T04:59:14;94580.94;;;16.38;90.49
43553;BME280;29153;42.696;23.218;2022-08-05T05:01:42;94577.84;;;16.53;89.34
43553;BME280;29153;42.696;23.218;2022-08-05T05:04:10;94580.49;;;16.84;87.95
43553;BME280;29153;42.696;23.218;2022-08-05T05:06:37;94578.98;;;17.17;86.57
43553;BME280;29153;42.696;23.218;2022-08-05T05:09:07;94575.28;;;17.24;85.51
43553;BME280;29153;42.696;23.218;2022-08-05T05:11:34;94575.23;;;17.36;83.12
43553;BME280;29153;42.696;23.218;2022-08-05T05:14:02;94576.48;;;17.55;82.08
43553;BME280;29153;42.696;23.218;2022-08-05T05:16:29;94580.08;;;17.62;81.87
43553;BME280;29153;42.696;23.218;2022-08-05T05:18:57;94579.20;;;17.64;81.49
43553;BME280;29153;42.696;23.218;2022-08-05T05:21:25;94578.41;;;17.72;81.26
43553;BME280;29153;42.696;23.218;2022-08-05T05:23:52;94578.09;;;17.82;80.69
43553;BME280;29153;42.696;23.218;2022-08-05T05:26:20;94574.30;;;17.92;79.98
43553;BME280;29153;42.696;23.218;2022-08-05T05:28:48;94577.91;;;18.04;79.65
43553;BME280;29153;42.696;23.218;2022-08-05T05:31:15;94577.27;;;18.07;78.84
43553;BME280;29153;42.696;23.218;2022-08-05T05:33:43;94581.41;;;18.19;78.21
43553;BME280;29153;42.696;23.218;2022-08-05T05:36:11;94579.57;;;18.35;76.86
43553;BME280;29153;42.696;23.218;2022-08-05T05:38:38;94576.31;;;18.44;76.01
43553;BME280;29153;42.696;23.218;2022-08-05T05:41:06;94582.20;;;18.52;76.82
43553;BME280;29153;42.696;23.218;2022-08-05T05:43:33;94581.64;;;18.61;76.00
43553;BME280;29153;42.696;23.218;2022-08-05T05:46:01;94586.39;;;18.70;75.18
43553;BME280;29153;42.696;23.218;2022-08-05T05:48:29;94577.67;;;18.82;74.90
43553;BME280;29153;42.696;23.218;2022-08-05T05:50:56;94581.42;;;18.89;75.66
43553;BME280;29153;42.696;23.218;2022-08-05T05:53:24;94579.80;;;18.97;74.26
43553;BME280;29153;42.696;23.218;2022-08-05T05:55:51;94584.33;;;19.05;74.69
43553;BME280;29153;42.696;23.218;2022-08-05T05:58:19;94587.99;;;19.15;74.15
43553;BME280;29153;42.696;23.218;2022-08-05T06:00:46;94587.28;;;19.27;74.73
43553;BME280;29153;42.696;23.218;2022-08-05T06:03:14;94584.22;;;19.37;74.45
43553;BME280;29153;42.696;23.218;2022-08-05T06:05:42;94589.33;;;19.44;73.23
43553;BME280;29153;42.696;23.218;2022-08-05T06:08:09;94589.56;;;19.45;71.02
43553;BME280;29153;42.696;23.218;2022-08-05T06:10:37;94589.24;;;19.68;70.80
43553;BME280;29153;42.696;23.218;2022-08-05T06:13:04;94589.24;;;19.68;70.80
43553;BME280;29153;42.696;23.218;2022-08-05T06:15:32;94591.07;;;19.76;70.22
43553;BME280;29153;42.696;23.218;2022-08-05T06:17:59;94594.31;;;19.75;68.70
43553;BME280;29153;42.696;23.218;2022-08-05T06:20:27;94583.97;;;19.92;70.94
43553;BME280;29153;42.696;23.218;2022-08-05T06:22:55;94588.16;;;20.02;71.14
43553;BME280;29153;42.696;23.218;2022-08-05T06:25:22;94584.48;;;20.12;70.46
43553;BME280;29153;42.696;23.218;2022-08-05T06:27:50;94583.60;;;20.20;68.65
43553;BME280;29153;42.696;23.218;2022-08-05T06:30:17;94582.17;;;20.29;68.32
43553;BME280;29153;42.696;23.218;2022-08-05T06:32:46;94589.63;;;20.38;67.95
43553;BME280;29153;42.696;23.218;2022-08-05T06:35:13;94585.95;;;20.55;68.62
43553;BME280;29153;42.696;23.218;2022-08-05T06:37:41;94582.52;;;20.66;67.25
43553;BME280;29153;42.696;23.218;2022-08-05T06:40:09;94585.88;;;20.81;67.32
43553;BME280;29153;42.696;23.218;2022-08-05T06:42:37;94582.07;;;20.95;67.36
43553;BME280;29153;42.696;23.218;2022-08-05T06:45:05;94585.88;;;20.94;66.27
43553;BME280;29153;42.696;23.218;2022-08-05T06:47:33;94585.20;;;21.03;65.10
43553;BME280;29153;42.696;23.218;2022-08-05T06:50:00;94585.45;;;21.16;64.41
43553;BME280;29153;42.696;23.218;2022-08-05T06:52:28;94584.20;;;21.31;63.56
43553;BME280;29153;42.696;23.218;2022-08-05T06:54:56;94584.95;;;21.44;63.87
43553;BME280;29153;42.696;23.218;2022-08-05T06:57:23;94583.15;;;21.54;64.69
43553;BME280;29153;42.696;23.218;2022-08-05T06:59:51;94576.28;;;21.63;64.87
43553;BME280;29153;42.696;23.218;2022-08-05T07:02:18;94576.70;;;21.71;63.02
43553;BME280;29153;42.696;23.218;2022-08-05T07:04:46;94578.83;;;21.77;63.38
43553;BME280;29153;42.696;23.218;2022-08-05T07:07:13;94578.55;;;21.89;62.88
43553;BME280;29153;42.696;23.218;2022-08-05T07:09:41;94580.81;;;21.93;61.21
43553;BME280;29153;42.696;23.218;2022-08-05T07:12:09;94580.56;;;21.92;63.74
43553;BME280;29153;42.696;23.218;2022-08-05T07:14:38;94582.35;;;22.00;64.22
43553;BME280;29153;42.696;23.218;2022-08-05T07:17:23;94586.25;;;22.08;61.85
43553;BME280;29153;42.696;23.218;2022-08-05T07:19:51;94591.02;;;22.21;60.85
43553;BME280;29153;42.696;23.218;2022-08-05T07:22:20;94585.59;;;22.33;59.90
43553;BME280;29153;42.696;23.218;2022-08-05T07:24:48;94586.78;;;22.42;59.53
43553;BME280;29153;42.696;23.218;2022-08-05T07:27:15;94590.67;;;22.50;59.78
43553;BME280;29153;42.696;23.218;2022-08-05T07:29:43;94588.53;;;22.65;59.68
43553;BME280;29153;42.696;23.218;2022-08-05T07:32:10;94587.33;;;22.85;59.12
43553;BME280;29153;42.696;23.218;2022-08-05T07:34:38;94592.27;;;22.98;58.60
43553;BME280;29153;42.696;23.218;2022-08-05T07:37:06;94585.93;;;23.16;57.43
43553;BME280;29153;42.696;23.218;2022-08-05T07:39:33;94586.25;;;23.46;57.10
43553;BME280;29153;42.696;23.218;2022-08-05T07:42:01;94582.82;;;23.74;58.39
43553;BME280;29153;42.696;23.218;2022-08-05T07:44:29;94584.52;;;24.11;56.98
43553;BME280;29153;42.696;23.218;2022-08-05T07:46:57;94582.42;;;24.53;55.19
43553;BME280;29153;42.696;23.218;2022-08-05T07:49:25;94576.92;;;24.91;52.80
43553;BME280;29153;42.696;23.218;2022-08-05T07:51:53;94576.39;;;25.31;53.72
43553;BME280;29153;42.696;23.218;2022-08-05T07:54:25;94581.37;;;25.81;54.08
43553;BME280;29153;42.696;23.218;2022-08-05T07:56:51;94572.98;;;26.23;51.03
43553;BME280;29153;42.696;23.218;2022-08-05T07:59:18;94572.06;;;26.66;49.41
43553;BME280;29153;42.696;23.218;2022-08-05T08:01:46;94579.47;;;27.09;46.29
43553;BME280;29153;42.696;23.218;2022-08-05T08:04:14;94573.45;;;27.61;47.52
43553;BME280;29153;42.696;23.218;2022-08-05T08:06:41;94575.14;;;27.87;42.29
43553;BME280;29153;42.696;23.218;2022-08-05T08:09:09;94572.95;;;28.14;42.32
43553;BME280;29153;42.696;23.218;2022-08-05T08:11:37;94576.22;;;28.58;44.21
43553;BME280;29153;42.696;23.218;2022-08-05T08:14:05;94570.64;;;28.96;43.28
43553;BME280;29153;42.696;23.218;2022-08-05T08:16:33;94570.24;;;29.15;40.01
43553;BME280;29153;42.696;23.218;2022-08-05T08:19:00;94564.16;;;29.72;43.66
43553;BME280;29153;42.696;23.218;2022-08-05T08:21:28;94573.97;;;30.17;42.71
43553;BME280;29153;42.696;23.218;2022-08-05T08:23:55;94570.16;;;30.40;39.31
43553;BME280;29153;42.696;23.218;2022-08-05T08:26:23;94564.69;;;30.77;41.75
43553;BME280;29153;42.696;23.218;2022-08-05T08:28:51;94566.52;;;31.01;36.12
43553;BME280;29153;42.696;23.218;2022-08-05T08:31:18;94562.72;;;31.36;39.00
43553;BME280;29153;42.696;23.218;2022-08-05T08:33:46;94563.30;;;31.35;35.78
43553;BME280;29153;42.696;23.218;2022-08-05T08:36:13;94567.79;;;31.59;37.70
43553;BME280;29153;42.696;23.218;2022-08-05T08:38:41;94567.86;;;31.90;36.99
43553;BME280;29153;42.696;23.218;2022-08-05T08:41:10;94562.28;;;31.82;33.21
43553;BME280;29153;42.696;23.218;2022-08-05T08:43:40;94556.75;;;32.04;36.15
43553;BME280;29153;42.696;23.218;2022-08-05T08:46:07;94557.69;;;32.05;34.80
43553;BME280;29153;42.696;23.218;2022-08-05T08:48:35;94558.81;;;32.30;33.73
43553;BME280;29153;42.696;23.218;2022-08-05T08:51:03;94560.53;;;32.32;34.93
43553;BME280;29153;42.696;23.218;2022-08-05T08:53:34;94555.32;;;32.41;32.16
43553;BME280;29153;42.696;23.218;2022-08-05T08:56:03;94556.19;;;32.50;31.07
43553;BME280;29153;42.696;23.218;2022-08-05T08:58:31;94555.48;;;32.58;33.59
43553;BME280;29153;42.696;23.218;2022-08-05T09:00:59;94552.53;;;32.60;32.18
43553;BME280;29153;42.696;23.218;2022-08-05T09:03:27;94553.84;;;32.79;33.97
43553;BME280;29153;42.696;23.218;2022-08-05T09:05:55;94557.21;;;32.63;31.65
43553;BME280;29153;42.696;23.218;2022-08-05T09:08:22;94551.16;;;32.87;33.17
43553;BME280;29153;42.696;23.218;2022-08-05T09:10:51;94545.92;;;32.96;34.59
43553;BME280;29153;42.696;23.218;2022-08-05T09:13:19;94545.52;;;32.98;33.57
43553;BME280;29153;42.696;23.218;2022-08-05T09:15:46;94535.79;;;32.93;30.83
43553;BME280;29153;42.696;23.218;2022-08-05T09:18:14;94534.94;;;32.42;30.88
43553;BME280;29153;42.696;23.218;2022-08-05T09:20:44;94532.84;;;32.69;33.77
43553;BME280;29153;42.696;23.218;2022-08-05T09:23:16;94532.33;;;32.47;32.93
43553;BME280;29153;42.696;23.218;2022-08-05T09:25:52;94530.09;;;32.69;31.08
43553;BME280;29153;42.696;23.218;2022-08-05T09:28:21;94522.14;;;32.63;28.79
43553;BME280;29153;42.696;23.218;2022-08-05T09:30:59;94523.00;;;32.56;30.84
43553;BME280;29153;42.696;23.218;2022-08-05T09:33:26;94516.31;;;32.72;32.73
43553;BME280;29153;42.696;23.218;2022-08-05T09:35:58;94519.63;;;32.57;34.01
43553;BME280;29153;42.696;23.218;2022-08-05T09:38:27;94518.56;;;32.35;27.92
43553;BME280;29153;42.696;23.218;2022-08-05T09:41:03;94516.48;;;31.97;29.83
43553;BME280;29153;42.696;23.218;2022-08-05T09:43:36;94511.28;;;31.91;31.14
43553;BME280;29153;42.696;23.218;2022-08-05T09:46:06;94505.70;;;32.17;36.53
43553;BME280;29153;42.696;23.218;2022-08-05T09:48:37;94504.55;;;32.15;33.82
43553;BME280;29153;42.696;23.218;2022-08-05T09:51:07;94509.09;;;32.13;32.03
43553;BME280;29153;42.696;23.218;2022-08-05T09:53:50;94504.34;;;31.98;29.80
43553;BME280;29153;42.696;23.218;2022-08-05T09:56:28;94500.95;;;32.21;30.02
43553;BME280;29153;42.696;23.218;2022-08-05T09:58:58;94500.34;;;31.88;30.73
43553;BME280;29153;42.696;23.218;2022-08-05T10:01:27;94495.24;;;32.09;33.93
43553;BME280;29153;42.696;23.218;2022-08-05T10:04:00;94495.23;;;32.05;32.23
43553;BME280;29153;42.696;23.218;2022-08-05T10:06:30;94498.15;;;32.10;30.41
43553;BME280;29153;42.696;23.218;2022-08-05T10:09:16;94491.08;;;32.12;34.50
43553;BME280;29153;42.696;23.218;2022-08-05T10:11:44;94485.25;;;32.37;34.61
43553;BME280;29153;42.696;23.218;2022-08-05T10:14:22;94479.28;;;32.30;31.73
43553;BME280;29153;42.696;23.218;2022-08-05T10:16:50;94482.37;;;32.47;33.62
43553;BME280;29153;42.696;23.218;2022-08-05T10:19:20;94480.60;;;32.19;32.43
43553;BME280;29153;42.696;23.218;2022-08-05T10:21:48;94476.05;;;32.05;29.22
43553;BME280;29153;42.696;23.218;2022-08-05T10:24:18;94477.59;;;32.25;30.43
43553;BME280;29153;42.696;23.218;2022-08-05T10:26:48;94476.24;;;32.36;30.48
43553;BME280;29153;42.696;23.218;2022-08-05T10:29:23;94464.05;;;32.52;30.82
43553;BME280;29153;42.696;23.218;2022-08-05T10:31:47;94473.80;;;32.15;29.24
43553;BME280;29153;42.696;23.218;2022-08-05T10:34:15;94465.90;;;32.21;30.71
43553;BME280;29153;42.696;23.218;2022-08-05T10:36:43;94461.42;;;32.45;33.74
43553;BME280;29153;42.696;23.218;2022-08-05T10:39:17;94457.10;;;32.60;29.84
43553;BME280;29153;42.696;23.218;2022-08-05T10:42:12;94461.03;;;32.85;34.37
43553;BME280;29153;42.696;23.218;2022-08-05T10:44:44;94451.70;;;32.68;28.23
43553;BME280;29153;42.696;23.218;2022-08-05T10:47:14;94452.55;;;32.49;29.28
43553;BME280;29153;42.696;23.218;2022-08-05T10:50:07;94443.98;;;32.59;30.73
43553;BME280;29153;42.696;23.218;2022-08-05T10:52:45;94453.14;;;32.61;31.89
43553;BME280;29153;42.696;23.218;2022-08-05T10:55:14;94446.00;;;32.55;30.98
43553;BME280;29153;42.696;23.218;2022-08-05T10:57:43;94440.08;;;32.72;31.62
43553;BME280;29153;42.696;23.218;2022-08-05T11:05:35;94443.52;;;32.99;27.65
43553;BME280;29153;42.696;23.218;2022-08-05T11:08:06;94436.55;;;32.83;26.86
43553;BME280;29153;42.696;23.218;2022-08-05T11:10:36;94426.50;;;33.08;27.80
43553;BME280;29153;42.696;23.218;2022-08-05T11:13:04;94429.80;;;32.99;27.82
43553;BME280;29153;42.696;23.218;2022-08-05T11:15:35;94426.16;;;32.82;30.53
43553;BME280;29153;42.696;23.218;2022-08-05T11:18:30;94429.03;;;32.87;28.89
43553;BME280;29153;42.696;23.218;2022-08-05T11:20:59;94430.04;;;32.62;28.21
43553;BME280;29153;42.696;23.218;2022-08-05T11:23:52;94430.30;;;32.94;28.58
43553;BME280;29153;42.696;23.218;2022-08-05T11:28:52;94424.63;;;32.93;27.29
43553;BME280;29153;42.696;23.218;2022-08-05T11:31:24;94427.95;;;33.27;30.54
43553;BME280;29153;42.696;23.218;2022-08-05T11:33:59;94416.33;;;33.59;27.58
43553;BME280;29153;42.696;23.218;2022-08-05T11:36:44;94410.10;;;33.47;27.63
43553;BME280;29153;42.696;23.218;2022-08-05T11:39:45;94416.19;;;33.78;27.77
43553;BME280;29153;42.696;23.218;2022-08-05T11:42:04;94413.14;;;33.92;27.52
43553;BME280;29153;42.696;23.218;2022-08-05T11:44:37;94404.80;;;33.88;28.44
43553;BME280;29153;42.696;23.218;2022-08-05T11:47:05;94403.30;;;33.75;30.45
43553;BME280;29153;42.696;23.218;2022-08-05T11:49:33;94414.64;;;33.26;28.62
43553;BME280;29153;42.696;23.218;2022-08-05T11:52:01;94406.17;;;33.28;27.29
43553;BME280;29153;42.696;23.218;2022-08-05T11:54:30;94406.81;;;33.64;28.48
43553;BME280;29153;42.696;23.218;2022-08-05T11:57:01;94398.70;;;33.88;27.66
43553;BME280;29153;42.696;23.218;2022-08-05T11:59:31;94398.36;;;33.94;29.53
43553;BME280;29153;42.696;23.218;2022-08-05T12:02:04;94397.46;;;33.81;26.59
43553;BME280;29153;42.696;23.218;2022-08-05T12:04:47;94402.05;;;33.05;28.15
43553;BME280;29153;42.696;23.218;2022-08-05T12:07:13;94407.47;;;32.39;29.47
43553;BME280;29153;42.696;23.218;2022-08-05T12:09:43;94405.45;;;31.55;29.80
43553;BME280;29153;42.696;23.218;2022-08-05T12:12:11;94402.84;;;31.26;31.87
43553;BME280;29153;42.696;23.218;2022-08-05T12:14:42;94405.08;;;30.97;30.92
43553;BME280;29153;42.696;23.218;2022-08-05T12:17:12;94405.36;;;30.88;31.58
43553;BME280;29153;42.696;23.218;2022-08-05T12:19:52;94395.23;;;30.85;31.96
43553;BME280;29153;42.696;23.218;2022-08-05T12:22:25;94394.33;;;31.17;33.11
43553;BME280;29153;42.696;23.218;2022-08-05T12:24:50;94390.81;;;31.69;31.20
43553;BME280;29153;42.696;23.218;2022-08-05T12:27:27;94389.19;;;32.17;29.58
43553;BME280;29153;42.696;23.218;2022-08-05T12:30:03;94384.03;;;32.58;30.05
43553;BME280;29153;42.696;23.218;2022-08-05T12:32:42;94375.28;;;32.78;27.79
43553;BME280;29153;42.696;23.218;2022-08-05T12:35:04;94379.75;;;33.15;29.44
43553;BME280;29153;42.696;23.218;2022-08-05T12:37:33;94370.59;;;33.10;28.48
43553;BME280;29153;42.696;23.218;2022-08-05T12:40:02;94374.73;;;32.98;27.80
43553;BME280;29153;42.696;23.218;2022-08-05T12:42:29;94369.11;;;33.05;27.96
43553;BME280;29153;42.696;23.218;2022-08-05T12:45:08;94377.50;;;32.75;30.30
43553;BME280;29153;42.696;23.218;2022-08-05T12:47:38;94367.61;;;32.19;28.85
43553;BME280;29153;42.696;23.218;2022-08-05T12:50:14;94367.55;;;31.96;31.37
43553;BME280;29153;42.696;23.218;2022-08-05T12:52:54;94363.09;;;31.79;30.33
43553;BME280;29153;42.696;23.218;2022-08-05T12:55:23;94365.16;;;31.56;29.81
43553;BME280;29153;42.696;23.218;2022-08-05T12:57:53;94362.60;;;31.38;31.91
43553;BME280;29153;42.696;23.218;2022-08-05T13:00:22;94361.73;;;31.11;31.13
43553;BME280;29153;42.696;23.218;2022-08-05T13:02:52;94356.02;;;31.17;32.62
43553;BME280;29153;42.696;23.218;2022-08-05T13:05:22;94355.48;;;30.92;32.79
43553;BME280;29153;42.696;23.218;2022-08-05T13:07:50;94349.16;;;30.80;33.52
43553;BME280;29153;42.696;23.218;2022-08-05T13:10:17;94359.11;;;30.59;32.79
43553;BME280;29153;42.696;23.218;2022-08-05T13:12:45;94356.56;;;30.35;32.50
43553;BME280;29153;42.696;23.218;2022-08-05T13:15:14;94345.63;;;30.35;32.55
43553;BME280;29153;42.696;23.218;2022-08-05T13:17:48;94347.00;;;30.35;32.21